Rockport, Utah
Current Conditions -  °F | °C
As of 1:35 AM on Saturday 29 Nov 2014 (Local Time) from K36U Reporting Station
Clear Clear  
Wind Chill: 50°   Ceiling: Unl
Heat Index: 50°   Visibility: 10mi
Dew Point: 14°   Wind: 10mph
Humidity: 24%   Direction: 220°SW
Pressure: 29.82"   Gusts: NA
Location:  40.7654°N, 111.287°W
Report Text: K36U 290835Z AUTO 22009KT 10SM CLR 10/M10 A2982 RMK AO2
Loading
Personal Weather Stations






























Interactive Weather Map New forecast layout! Learn more

10-Day Weather Forecast

Advertisements
Track Severe Weather on mobile